Airfield :
LOGIN :

Register | Disclaimer

   EN    FR    IT 

 










Legend :    VFR   Marginal VFR   IFR   Intensive IFR   Very Intensive IFR
Visi :
Ceiling :
>= 8 km
>= 3000ft
5 to 8 km
1000 to 3000 ft
1500m to 5 km
500 to 1000 ft
800 to 1500m
200 to 500 ft
< 800m
< 200 ft
Symbols :   Thunderstorms  Fog  Heavy snow  Heavy precipitations  Wind > 20 kt
SIGMETs :     Misc.  Thunderstorms  Icing  Turbulence  Mountain Waves  Volcanic Ashes






- Airport Elevation : 863 ft
- IATA code : ZAZ


LEZG - Zaragoza Aragon

CURRENT METAR :
  • 301630Z 30023G33KT CAVOK 24/09 Q1014

EXPIRED METARs :
  • 301600Z 30020KT 270V340 CAVOK 25/09 Q1013
  • 301530Z 30021KT 270V330 CAVOK 25/10 Q1013
  • 301500Z 29022KT CAVOK 25/10 Q1013
  • 301430Z 30019KT CAVOK 25/10 Q1014
  • 301400Z 30019KT 260V330 CAVOK 23/10 Q1014

TAF TAF LEZG
Valid from the 30 at 12:00 until the 01 at 12:00 UTC


301100Z 3012/0112 31015KT 9999 FEW060 TX26/3015Z TN13/0106Z
TEMPO 3012/3020 32017G27KT
BECMG 0109/0111 VRB03KT



MET'MAP, your aeronautical weather chart ! - Copyright ORBIFLY December 2007 - Disclaimer

ORBIFLY MET'MAP TEAM :

Programming & Development : Alexandra Zaïnal
Original concept : Baudouin d'Aumeries
Technical & hardware support : Manuel Goepfert
Assistance : Marc-Olivier Méhu




SOURCES & CREDITS :

   NOAA